createdAt,value
2022-08-20T00:01:02.182Z,7.87
2022-08-20T00:04:06.229Z,8.60
2022-08-20T00:07:12.789Z,7.90
2022-08-20T00:10:18.163Z,7.93
2022-08-20T00:13:27.330Z,8.07
2022-08-20T00:16:38.094Z,8.10
2022-08-20T00:19:41.956Z,7.90
2022-08-20T00:22:47.742Z,7.70
2022-08-20T00:25:52.974Z,7.63
2022-08-20T00:28:56.667Z,7.90
2022-08-20T00:32:03.025Z,7.93
2022-08-20T00:35:07.775Z,7.63
2022-08-20T00:38:17.651Z,7.77
2022-08-20T00:41:25.955Z,7.70
2022-08-20T00:44:30.021Z,7.70
2022-08-20T00:47:35.631Z,7.60
2022-08-20T00:50:41.460Z,7.60
2022-08-20T00:53:45.978Z,7.83
2022-08-20T00:56:57.130Z,7.73
2022-08-20T01:00:02.679Z,7.70
2022-08-20T01:03:09.942Z,7.37
2022-08-20T01:06:14.043Z,7.40
2022-08-20T01:09:18.523Z,7.67
2022-08-20T01:12:46.382Z,8.07
2022-08-20T01:15:55.318Z,7.43
2022-08-20T01:19:04.953Z,7.50
2022-08-20T01:22:54.951Z,7.73
2022-08-20T01:26:06.272Z,8.20
2022-08-20T01:29:14.132Z,7.53
2022-08-20T01:32:17.823Z,7.43
2022-08-20T01:35:25.697Z,7.40
2022-08-20T01:38:31.370Z,7.50
2022-08-20T01:41:54.091Z,7.30
2022-08-20T01:44:58.227Z,7.57
2022-08-20T01:48:05.371Z,8.07
2022-08-20T01:51:14.918Z,7.60
2022-08-20T01:54:19.180Z,7.57
2022-08-20T01:57:27.868Z,7.43
2022-08-20T02:00:35.175Z,6.97
2022-08-20T02:03:44.408Z,7.23
2022-08-20T02:06:57.248Z,7.43
2022-08-20T02:10:02.814Z,7.10
2022-08-20T02:13:10.220Z,7.70
2022-08-20T02:16:14.428Z,6.80
2022-08-20T02:19:23.224Z,7.37
2022-08-20T02:22:34.309Z,7.30
2022-08-20T02:25:41.658Z,7.40
2022-08-20T02:28:49.538Z,7.00
2022-08-20T02:32:28.376Z,7.20
2022-08-20T02:35:19.243Z,7.00
2022-08-20T02:38:23.482Z,7.70
2022-08-20T02:41:27.322Z,7.17
2022-08-20T02:44:33.639Z,7.40
2022-08-20T02:47:39.059Z,7.30
2022-08-20T02:50:45.231Z,6.97
2022-08-20T02:53:51.175Z,6.80
2022-08-20T02:56:55.149Z,7.43
2022-08-20T03:00:02.282Z,7.27
2022-08-20T03:03:08.336Z,7.10
2022-08-20T03:06:14.024Z,7.17
2022-08-20T03:09:17.809Z,7.13
2022-08-20T03:12:22.542Z,6.73
2022-08-20T03:15:28.946Z,7.07
2022-08-20T03:18:36.979Z,6.70
2022-08-20T03:21:41.697Z,7.23
2022-08-20T03:24:46.325Z,6.83
2022-08-20T03:27:54.308Z,6.70
2022-08-20T03:31:01.385Z,7.07
2022-08-20T03:34:06.555Z,7.30
2022-08-20T03:37:11.755Z,6.27
2022-08-20T03:40:20.177Z,6.90
2022-08-20T03:43:25.950Z,6.53
2022-08-20T03:46:31.837Z,6.63
2022-08-20T03:49:37.396Z,6.77
2022-08-20T03:52:41.360Z,6.60
2022-08-20T03:55:54.352Z,6.40
2022-08-20T03:58:58.622Z,6.43
2022-08-20T04:02:03.808Z,6.73
2022-08-20T04:05:08.901Z,6.63
2022-08-20T04:08:14.785Z,6.77
2022-08-20T04:11:18.545Z,7.00
2022-08-20T04:14:22.297Z,6.87
2022-08-20T04:17:28.183Z,6.60
2022-08-20T04:20:31.879Z,6.80
2022-08-20T04:23:35.625Z,6.83
2022-08-20T04:26:39.385Z,7.03
2022-08-20T04:29:44.616Z,6.50
2022-08-20T04:32:50.696Z,6.70
2022-08-20T04:35:55.220Z,7.00
2022-08-20T04:38:59.155Z,6.70
2022-08-20T04:42:02.854Z,7.00
2022-08-20T04:45:08.683Z,6.20
2022-08-20T04:48:15.450Z,6.47
2022-08-20T04:51:22.775Z,6.70
2022-08-20T04:54:27.041Z,6.67
2022-08-20T04:57:30.904Z,6.90
2022-08-20T05:00:35.779Z,6.90
2022-08-20T05:03:41.817Z,6.77
2022-08-20T05:06:45.696Z,6.47
2022-08-20T05:09:49.479Z,6.63
2022-08-20T05:12:56.517Z,6.20
2022-08-20T05:16:02.053Z,6.53
2022-08-20T05:19:08.714Z,6.50
2022-08-20T05:22:12.737Z,6.73
2022-08-20T05:25:16.468Z,6.33
2022-08-20T05:28:24.278Z,6.40
2022-08-20T05:31:32.182Z,6.77
2022-08-20T05:34:38.267Z,6.47
2022-08-20T05:37:42.361Z,6.27
2022-08-20T05:40:47.270Z,6.27
2022-08-20T05:43:51.635Z,6.17
2022-08-20T05:46:55.567Z,6.27
2022-08-20T05:50:02.175Z,6.33
2022-08-20T05:53:06.167Z,6.43
2022-08-20T05:56:11.398Z,5.53
2022-08-20T05:59:15.255Z,6.40
2022-08-20T06:02:36.332Z,6.50
2022-08-20T06:05:41.810Z,5.90
2022-08-20T06:08:45.574Z,6.50
2022-08-20T06:11:49.429Z,6.70
2022-08-20T06:14:53.226Z,5.87
2022-08-20T06:17:58.149Z,6.37
2022-08-20T06:21:03.848Z,6.53
2022-08-20T06:24:08.676Z,6.27
2022-08-20T06:27:15.648Z,6.07
2022-08-20T06:30:19.394Z,6.00
2022-08-20T06:33:23.163Z,6.00
2022-08-20T06:36:28.402Z,6.40
2022-08-20T06:39:32.377Z,5.70
2022-08-20T06:42:36.432Z,6.30
2022-08-20T06:45:40.689Z,6.10
2022-08-20T06:48:44.458Z,5.77
2022-08-20T06:51:52.074Z,6.03
2022-08-20T06:54:55.973Z,5.63
2022-08-20T06:58:37.302Z,5.50
2022-08-20T07:01:42.434Z,6.03
2022-08-20T07:04:46.287Z,5.90
2022-08-20T07:07:51.413Z,5.63
2022-08-20T07:10:55.276Z,5.90
2022-08-20T07:13:59.423Z,6.10
2022-08-20T07:17:04.082Z,5.53
2022-08-20T07:20:16.498Z,6.03
2022-08-20T07:23:21.706Z,6.00
2022-08-20T07:26:25.568Z,5.90
2022-08-20T07:29:49.351Z,6.10
2022-08-20T07:32:52.084Z,5.80
2022-08-20T07:35:57.287Z,5.77
2022-08-20T07:39:05.858Z,5.83
2022-08-20T07:42:10.227Z,5.50
2022-08-20T07:45:16.481Z,5.77
2022-08-20T07:48:31.443Z,5.53
2022-08-20T07:51:36.734Z,5.57
2022-08-20T07:54:42.696Z,5.50
2022-08-20T07:57:46.913Z,5.67
2022-08-20T08:00:51.477Z,6.03
2022-08-20T08:03:56.968Z,5.43
2022-08-20T08:07:01.504Z,5.20
2022-08-20T08:10:09.035Z,5.37
2022-08-20T08:13:14.608Z,5.73
2022-08-20T08:16:20.175Z,6.17
2022-08-20T08:19:25.690Z,4.87
2022-08-20T08:22:31.686Z,5.40
2022-08-20T08:25:37.003Z,5.00
2022-08-20T08:28:41.311Z,5.47
2022-08-20T08:31:45.839Z,5.70
2022-08-20T08:34:49.700Z,5.47
2022-08-20T08:37:54.187Z,5.33
2022-08-20T08:41:04.668Z,5.23
2022-08-20T08:44:11.710Z,5.27
2022-08-20T08:47:21.925Z,5.30
2022-08-20T08:50:53.650Z,5.20
2022-08-20T08:53:55.775Z,5.00
2022-08-20T08:57:01.251Z,5.13
2022-08-20T09:00:09.940Z,5.30
2022-08-20T09:03:22.029Z,5.07
2022-08-20T09:06:29.239Z,5.20
2022-08-20T09:09:39.521Z,4.97
2022-08-20T09:12:47.848Z,5.23
2022-08-20T09:15:52.611Z,5.23
2022-08-20T09:18:57.775Z,4.83
2022-08-20T09:22:09.757Z,5.53
2022-08-20T09:25:16.105Z,5.47
